weather.gov     
National Weather Service

Terminal Aerodrome Forecast
NWS Homepage
This page is being discontinued on March 12, 2014.
The same data is available at this site. Please update your bookmarks.
Thank you, and we apologize for the inconvenience.
Please send an email to SR-SRH.Webmaster@noaa.gov with any concerns.


Current Version
Previous Version:    01  02  03  04  05  06  07  08  09  10  11  12  13  14  15  16  17  18  19  20  21  22  23  24  25  26  27  28  29  30  
   31  32  33  34  35  36  37  38  39  40  41  
[Printable]
734
FTAK31 PANC 250531
TAFADQ
TAF
PADQ 250531Z 2506/2606 09010KT P6SM VCSH SCT008 OVC020
      TEMPO 2506/2508 BKN008
     FM251300 14015KT 6SM -RA BKN009 OVC020
     FM251900 10019G27KT 5SM -RA BR OVC009
     FM252200 09025G36KT 3SM RA BR OVC007=




734
FTAK31 PANC 250531
TAFADQ
TAF
PADQ 250531Z 2506/2606 09010KT P6SM VCSH SCT008 OVC020
      TEMPO 2506/2508 BKN008
     FM251300 14015KT 6SM -RA BKN009 OVC020
     FM251900 10019G27KT 5SM -RA BR OVC009
     FM252200 09025G36KT 3SM RA BR OVC007=


U.S. Dept. of Commerce
NOAA National Weather Service
1325 East West Highway
Silver Spring, MD 20910
E-mail: w-nws.webmaster@noaa.gov
Page last modified: May 16, 2007
NATIONAL WEATHER SERVICE: for Safety, for Work, for Fun - FOR LIFE